sensor_id;sensor_type;location;lat;lon;timestamp;P1;durP1;ratioP1;P2;durP2;ratioP2
20988;SDS011;10653;47.052;15.410;2023-07-13T00:02:22;1.80;;;1.40;;
20988;SDS011;10653;47.052;15.410;2023-07-13T00:04:48;1.97;;;1.03;;
20988;SDS011;10653;47.052;15.410;2023-07-13T00:07:15;1.37;;;1.27;;
20988;SDS011;10653;47.052;15.410;2023-07-13T00:09:45;0.90;;;0.80;;
20988;SDS011;10653;47.052;15.410;2023-07-13T00:12:28;2.20;;;1.10;;
20988;SDS011;10653;47.052;15.410;2023-07-13T00:14:57;1.07;;;0.87;;
20988;SDS011;10653;47.052;15.410;2023-07-13T00:17:24;1.57;;;0.87;;
20988;SDS011;10653;47.052;15.410;2023-07-13T00:19:50;0.97;;;0.87;;
20988;SDS011;10653;47.052;15.410;2023-07-13T00:22:16;1.23;;;0.93;;
20988;SDS011;10653;47.052;15.410;2023-07-13T00:24:43;2.30;;;1.20;;
20988;SDS011;10653;47.052;15.410;2023-07-13T00:27:09;4.77;;;1.20;;
20988;SDS011;10653;47.052;15.410;2023-07-13T00:29:35;2.03;;;1.80;;
20988;SDS011;10653;47.052;15.410;2023-07-13T00:32:03;2.23;;;1.60;;
20988;SDS011;10653;47.052;15.410;2023-07-13T00:34:29;1.83;;;1.73;;
20988;SDS011;10653;47.052;15.410;2023-07-13T00:36:55;1.50;;;1.40;;
20988;SDS011;10653;47.052;15.410;2023-07-13T00:39:21;1.50;;;1.33;;
20988;SDS011;10653;47.052;15.410;2023-07-13T00:41:47;2.20;;;1.47;;
20988;SDS011;10653;47.052;15.410;2023-07-13T00:44:14;1.60;;;1.13;;
20988;SDS011;10653;47.052;15.410;2023-07-13T00:46:40;1.70;;;1.03;;
20988;SDS011;10653;47.052;15.410;2023-07-13T00:49:07;2.80;;;0.90;;
20988;SDS011;10653;47.052;15.410;2023-07-13T00:54:09;1.43;;;1.23;;
20988;SDS011;10653;47.052;15.410;2023-07-13T00:56:37;1.57;;;1.27;;
20988;SDS011;10653;47.052;15.410;2023-07-13T00:59:03;2.10;;;1.10;;
20988;SDS011;10653;47.052;15.410;2023-07-13T01:01:31;1.57;;;1.30;;
20988;SDS011;10653;47.052;15.410;2023-07-13T01:03:57;1.17;;;1.07;;
20988;SDS011;10653;47.052;15.410;2023-07-13T01:06:23;2.40;;;1.33;;
20988;SDS011;10653;47.052;15.410;2023-07-13T01:08:49;1.40;;;1.30;;
20988;SDS011;10653;47.052;15.410;2023-07-13T01:11:19;2.13;;;1.13;;
20988;SDS011;10653;47.052;15.410;2023-07-13T01:13:46;1.30;;;0.90;;
20988;SDS011;10653;47.052;15.410;2023-07-13T01:16:18;1.73;;;1.63;;
20988;SDS011;10653;47.052;15.410;2023-07-13T01:18:45;2.70;;;1.20;;
20988;SDS011;10653;47.052;15.410;2023-07-13T01:21:11;1.50;;;1.07;;
20988;SDS011;10653;47.052;15.410;2023-07-13T01:23:37;2.53;;;1.20;;
20988;SDS011;10653;47.052;15.410;2023-07-13T01:26:03;2.40;;;1.03;;
20988;SDS011;10653;47.052;15.410;2023-07-13T01:28:29;1.10;;;1.00;;
20988;SDS011;10653;47.052;15.410;2023-07-13T01:30:56;2.40;;;1.30;;
20988;SDS011;10653;47.052;15.410;2023-07-13T01:33:23;1.97;;;1.50;;
20988;SDS011;10653;47.052;15.410;2023-07-13T01:35:50;1.27;;;1.00;;
20988;SDS011;10653;47.052;15.410;2023-07-13T01:38:18;2.50;;;1.83;;
20988;SDS011;10653;47.052;15.410;2023-07-13T01:40:44;2.60;;;1.53;;
20988;SDS011;10653;47.052;15.410;2023-07-13T01:43:10;2.90;;;1.63;;
20988;SDS011;10653;47.052;15.410;2023-07-13T01:45:36;3.20;;;1.60;;
20988;SDS011;10653;47.052;15.410;2023-07-13T01:48:02;4.00;;;1.90;;
20988;SDS011;10653;47.052;15.410;2023-07-13T01:50:28;2.30;;;2.00;;
20988;SDS011;10653;47.052;15.410;2023-07-13T01:52:54;2.63;;;2.00;;
20988;SDS011;10653;47.052;15.410;2023-07-13T01:55:21;2.53;;;1.80;;
20988;SDS011;10653;47.052;15.410;2023-07-13T01:57:47;4.73;;;2.93;;
20988;SDS011;10653;47.052;15.410;2023-07-13T02:00:13;3.70;;;3.00;;
20988;SDS011;10653;47.052;15.410;2023-07-13T02:02:39;1.97;;;1.73;;
20988;SDS011;10653;47.052;15.410;2023-07-13T02:05:06;3.17;;;2.10;;
20988;SDS011;10653;47.052;15.410;2023-07-13T02:07:32;1.87;;;1.77;;
20988;SDS011;10653;47.052;15.410;2023-07-13T02:09:58;2.40;;;1.50;;
20988;SDS011;10653;47.052;15.410;2023-07-13T02:12:24;3.73;;;1.73;;
20988;SDS011;10653;47.052;15.410;2023-07-13T02:14:50;2.73;;;1.97;;
20988;SDS011;10653;47.052;15.410;2023-07-13T02:17:16;3.80;;;1.80;;
20988;SDS011;10653;47.052;15.410;2023-07-13T02:19:42;2.90;;;1.47;;
20988;SDS011;10653;47.052;15.410;2023-07-13T02:22:08;2.30;;;1.73;;
20988;SDS011;10653;47.052;15.410;2023-07-13T02:24:34;2.03;;;1.80;;
20988;SDS011;10653;47.052;15.410;2023-07-13T02:27:00;2.83;;;1.77;;
20988;SDS011;10653;47.052;15.410;2023-07-13T02:29:26;2.47;;;1.83;;
20988;SDS011;10653;47.052;15.410;2023-07-13T02:31:52;3.03;;;1.67;;
20988;SDS011;10653;47.052;15.410;2023-07-13T02:34:18;4.13;;;1.90;;
20988;SDS011;10653;47.052;15.410;2023-07-13T02:36:44;2.33;;;1.87;;
20988;SDS011;10653;47.052;15.410;2023-07-13T02:39:10;2.90;;;2.27;;
20988;SDS011;10653;47.052;15.410;2023-07-13T02:41:37;3.23;;;2.53;;
20988;SDS011;10653;47.052;15.410;2023-07-13T02:44:03;5.20;;;2.00;;
20988;SDS011;10653;47.052;15.410;2023-07-13T02:46:32;3.80;;;2.50;;
20988;SDS011;10653;47.052;15.410;2023-07-13T02:48:58;3.53;;;3.03;;
20988;SDS011;10653;47.052;15.410;2023-07-13T02:51:25;3.50;;;2.63;;
20988;SDS011;10653;47.052;15.410;2023-07-13T02:53:51;3.07;;;2.77;;
20988;SDS011;10653;47.052;15.410;2023-07-13T02:56:18;2.67;;;2.47;;
20988;SDS011;10653;47.052;15.410;2023-07-13T02:58:44;3.93;;;2.53;;
20988;SDS011;10653;47.052;15.410;2023-07-13T03:01:11;3.93;;;3.57;;
20988;SDS011;10653;47.052;15.410;2023-07-13T03:03:37;3.40;;;3.10;;
20988;SDS011;10653;47.052;15.410;2023-07-13T03:06:04;3.70;;;3.00;;
20988;SDS011;10653;47.052;15.410;2023-07-13T03:08:32;3.20;;;2.90;;
20988;SDS011;10653;47.052;15.410;2023-07-13T03:11:02;4.77;;;2.90;;
20988;SDS011;10653;47.052;15.410;2023-07-13T03:13:28;5.27;;;3.47;;
20988;SDS011;10653;47.052;15.410;2023-07-13T03:15:54;3.23;;;2.13;;
20988;SDS011;10653;47.052;15.410;2023-07-13T03:18:20;2.27;;;2.07;;
20988;SDS011;10653;47.052;15.410;2023-07-13T03:20:49;2.77;;;1.87;;
20988;SDS011;10653;47.052;15.410;2023-07-13T03:23:16;3.93;;;2.27;;
20988;SDS011;10653;47.052;15.410;2023-07-13T03:25:42;4.00;;;2.60;;
20988;SDS011;10653;47.052;15.410;2023-07-13T03:28:09;2.43;;;2.10;;
20988;SDS011;10653;47.052;15.410;2023-07-13T03:30:35;2.70;;;2.17;;
20988;SDS011;10653;47.052;15.410;2023-07-13T03:33:01;2.47;;;2.17;;
20988;SDS011;10653;47.052;15.410;2023-07-13T03:35:27;2.47;;;2.10;;
20988;SDS011;10653;47.052;15.410;2023-07-13T03:37:53;2.37;;;2.17;;
20988;SDS011;10653;47.052;15.410;2023-07-13T03:40:19;3.80;;;3.07;;
20988;SDS011;10653;47.052;15.410;2023-07-13T03:42:45;2.77;;;2.57;;
20988;SDS011;10653;47.052;15.410;2023-07-13T03:45:11;3.27;;;2.60;;
20988;SDS011;10653;47.052;15.410;2023-07-13T03:47:37;4.50;;;3.10;;
20988;SDS011;10653;47.052;15.410;2023-07-13T03:50:03;3.20;;;2.90;;
20988;SDS011;10653;47.052;15.410;2023-07-13T03:52:29;4.90;;;2.97;;
20988;SDS011;10653;47.052;15.410;2023-07-13T03:54:55;3.83;;;3.07;;
20988;SDS011;10653;47.052;15.410;2023-07-13T03:57:21;4.47;;;3.13;;
20988;SDS011;10653;47.052;15.410;2023-07-13T03:59:48;7.37;;;3.10;;
20988;SDS011;10653;47.052;15.410;2023-07-13T04:02:14;4.43;;;3.47;;
20988;SDS011;10653;47.052;15.410;2023-07-13T04:04:40;3.30;;;2.90;;
20988;SDS011;10653;47.052;15.410;2023-07-13T04:07:06;5.27;;;2.27;;
20988;SDS011;10653;47.052;15.410;2023-07-13T04:09:33;3.30;;;2.60;;
20988;SDS011;10653;47.052;15.410;2023-07-13T04:11:59;2.70;;;2.40;;
20988;SDS011;10653;47.052;15.410;2023-07-13T04:14:25;2.90;;;2.33;;
20988;SDS011;10653;47.052;15.410;2023-07-13T04:16:51;3.70;;;2.47;;
20988;SDS011;10653;47.052;15.410;2023-07-13T04:19:19;2.73;;;2.53;;
20988;SDS011;10653;47.052;15.410;2023-07-13T04:21:46;2.67;;;2.43;;
20988;SDS011;10653;47.052;15.410;2023-07-13T04:24:12;2.87;;;2.20;;
20988;SDS011;10653;47.052;15.410;2023-07-13T04:26:38;2.43;;;2.23;;
20988;SDS011;10653;47.052;15.410;2023-07-13T04:29:04;2.57;;;2.37;;
20988;SDS011;10653;47.052;15.410;2023-07-13T04:31:31;2.80;;;2.00;;
20988;SDS011;10653;47.052;15.410;2023-07-13T04:33:57;2.50;;;2.13;;
20988;SDS011;10653;47.052;15.410;2023-07-13T04:36:23;4.20;;;2.70;;
20988;SDS011;10653;47.052;15.410;2023-07-13T04:38:52;2.47;;;2.27;;
20988;SDS011;10653;47.052;15.410;2023-07-13T04:41:19;2.43;;;2.23;;
20988;SDS011;10653;47.052;15.410;2023-07-13T04:43:45;5.30;;;2.40;;
20988;SDS011;10653;47.052;15.410;2023-07-13T04:46:11;2.30;;;2.10;;
20988;SDS011;10653;47.052;15.410;2023-07-13T04:48:38;2.30;;;2.10;;
20988;SDS011;10653;47.052;15.410;2023-07-13T04:51:04;4.53;;;2.27;;
20988;SDS011;10653;47.052;15.410;2023-07-13T04:53:31;3.70;;;1.90;;
20988;SDS011;10653;47.052;15.410;2023-07-13T04:55:57;2.37;;;1.93;;
20988;SDS011;10653;47.052;15.410;2023-07-13T04:58:24;2.50;;;2.30;;
20988;SDS011;10653;47.052;15.410;2023-07-13T05:00:50;11.13;;;3.00;;
20988;SDS011;10653;47.052;15.410;2023-07-13T05:03:16;2.80;;;2.50;;
20988;SDS011;10653;47.052;15.410;2023-07-13T05:05:42;2.40;;;2.20;;
20988;SDS011;10653;47.052;15.410;2023-07-13T05:08:08;5.13;;;2.30;;
20988;SDS011;10653;47.052;15.410;2023-07-13T05:10:35;2.70;;;1.90;;
20988;SDS011;10653;47.052;15.410;2023-07-13T05:13:01;2.70;;;2.23;;
20988;SDS011;10653;47.052;15.410;2023-07-13T05:15:28;2.67;;;2.47;;
20988;SDS011;10653;47.052;15.410;2023-07-13T05:17:54;2.87;;;2.17;;
20988;SDS011;10653;47.052;15.410;2023-07-13T05:20:20;4.27;;;2.23;;
20988;SDS011;10653;47.052;15.410;2023-07-13T05:22:46;1.93;;;1.83;;
20988;SDS011;10653;47.052;15.410;2023-07-13T05:25:12;3.03;;;1.97;;
20988;SDS011;10653;47.052;15.410;2023-07-13T05:27:39;2.37;;;2.17;;
20988;SDS011;10653;47.052;15.410;2023-07-13T05:30:05;4.00;;;2.80;;
20988;SDS011;10653;47.052;15.410;2023-07-13T05:32:33;2.63;;;2.20;;
20988;SDS011;10653;47.052;15.410;2023-07-13T05:34:59;2.50;;;2.20;;
20988;SDS011;10653;47.052;15.410;2023-07-13T05:37:25;3.47;;;2.37;;
20988;SDS011;10653;47.052;15.410;2023-07-13T05:39:51;2.77;;;2.20;;
20988;SDS011;10653;47.052;15.410;2023-07-13T05:42:17;2.73;;;2.03;;
20988;SDS011;10653;47.052;15.410;2023-07-13T05:44:43;3.90;;;2.50;;
20988;SDS011;10653;47.052;15.410;2023-07-13T05:47:09;2.10;;;1.80;;
20988;SDS011;10653;47.052;15.410;2023-07-13T05:49:35;3.17;;;1.77;;
20988;SDS011;10653;47.052;15.410;2023-07-13T05:52:01;2.17;;;1.97;;
20988;SDS011;10653;47.052;15.410;2023-07-13T05:54:27;4.07;;;2.17;;
20988;SDS011;10653;47.052;15.410;2023-07-13T05:56:53;2.17;;;1.97;;
20988;SDS011;10653;47.052;15.410;2023-07-13T05:59:19;2.10;;;1.90;;
20988;SDS011;10653;47.052;15.410;2023-07-13T06:01:45;2.00;;;1.80;;
20988;SDS011;10653;47.052;15.410;2023-07-13T06:04:11;2.00;;;1.83;;
20988;SDS011;10653;47.052;15.410;2023-07-13T06:06:37;3.80;;;1.93;;
20988;SDS011;10653;47.052;15.410;2023-07-13T06:09:03;1.93;;;1.80;;
20988;SDS011;10653;47.052;15.410;2023-07-13T06:11:29;2.20;;;2.03;;
20988;SDS011;10653;47.052;15.410;2023-07-13T06:13:55;3.10;;;2.40;;
20988;SDS011;10653;47.052;15.410;2023-07-13T06:16:21;1.97;;;1.73;;
20988;SDS011;10653;47.052;15.410;2023-07-13T06:18:47;3.13;;;1.70;;
20988;SDS011;10653;47.052;15.410;2023-07-13T06:21:17;2.30;;;1.73;;
20988;SDS011;10653;47.052;15.410;2023-07-13T06:23:44;2.13;;;1.10;;
20988;SDS011;10653;47.052;15.410;2023-07-13T06:26:10;1.93;;;1.60;;
20988;SDS011;10653;47.052;15.410;2023-07-13T06:28:37;2.10;;;1.40;;
20988;SDS011;10653;47.052;15.410;2023-07-13T06:31:05;1.50;;;1.40;;
20988;SDS011;10653;47.052;15.410;2023-07-13T06:33:32;2.70;;;1.53;;
20988;SDS011;10653;47.052;15.410;2023-07-13T06:35:58;2.20;;;1.70;;
20988;SDS011;10653;47.052;15.410;2023-07-13T06:38:24;2.13;;;1.70;;
20988;SDS011;10653;47.052;15.410;2023-07-13T06:40:50;3.43;;;1.80;;
20988;SDS011;10653;47.052;15.410;2023-07-13T06:43:16;2.47;;;1.50;;
20988;SDS011;10653;47.052;15.410;2023-07-13T06:45:44;1.57;;;1.30;;
20988;SDS011;10653;47.052;15.410;2023-07-13T06:48:12;1.60;;;1.40;;
20988;SDS011;10653;47.052;15.410;2023-07-13T06:50:38;1.23;;;1.10;;
20988;SDS011;10653;47.052;15.410;2023-07-13T06:53:04;1.47;;;1.30;;
20988;SDS011;10653;47.052;15.410;2023-07-13T06:55:30;1.43;;;1.23;;
20988;SDS011;10653;47.052;15.410;2023-07-13T06:57:56;2.03;;;1.50;;
20988;SDS011;10653;47.052;15.410;2023-07-13T07:00:23;1.53;;;1.43;;
20988;SDS011;10653;47.052;15.410;2023-07-13T07:02:49;2.00;;;1.77;;
20988;SDS011;10653;47.052;15.410;2023-07-13T07:05:15;1.10;;;1.00;;
20988;SDS011;10653;47.052;15.410;2023-07-13T07:07:41;2.20;;;1.17;;
20988;SDS011;10653;47.052;15.410;2023-07-13T07:10:07;2.20;;;1.30;;
20988;SDS011;10653;47.052;15.410;2023-07-13T07:12:33;1.60;;;1.40;;
20988;SDS011;10653;47.052;15.410;2023-07-13T07:14:59;1.73;;;1.00;;
20988;SDS011;10653;47.052;15.410;2023-07-13T07:17:25;1.20;;;1.00;;
20988;SDS011;10653;47.052;15.410;2023-07-13T07:19:51;1.73;;;1.50;;
20988;SDS011;10653;47.052;15.410;2023-07-13T07:22:19;2.17;;;1.17;;
20988;SDS011;10653;47.052;15.410;2023-07-13T07:24:45;1.43;;;1.00;;
20988;SDS011;10653;47.052;15.410;2023-07-13T07:27:11;2.00;;;1.40;;
20988;SDS011;10653;47.052;15.410;2023-07-13T07:29:37;1.10;;;1.00;;
20988;SDS011;10653;47.052;15.410;2023-07-13T07:32:03;1.40;;;1.13;;
20988;SDS011;10653;47.052;15.410;2023-07-13T07:34:30;4.00;;;1.13;;
20988;SDS011;10653;47.052;15.410;2023-07-13T07:36:58;2.70;;;1.03;;
20988;SDS011;10653;47.052;15.410;2023-07-13T07:39:25;2.20;;;1.50;;
20988;SDS011;10653;47.052;15.410;2023-07-13T07:41:51;1.50;;;1.40;;
20988;SDS011;10653;47.052;15.410;2023-07-13T07:44:17;2.10;;;1.40;;
20988;SDS011;10653;47.052;15.410;2023-07-13T07:46:43;2.10;;;1.40;;
20988;SDS011;10653;47.052;15.410;2023-07-13T07:49:09;1.97;;;1.57;;
20988;SDS011;10653;47.052;15.410;2023-07-13T07:51:35;3.10;;;1.50;;
20988;SDS011;10653;47.052;15.410;2023-07-13T07:54:01;3.93;;;1.70;;
20988;SDS011;10653;47.052;15.410;2023-07-13T07:56:28;2.40;;;1.70;;
20988;SDS011;10653;47.052;15.410;2023-07-13T07:58:54;2.33;;;1.67;;
20988;SDS011;10653;47.052;15.410;2023-07-13T08:01:20;1.70;;;1.50;;
20988;SDS011;10653;47.052;15.410;2023-07-13T08:03:46;1.67;;;1.50;;
20988;SDS011;10653;47.052;15.410;2023-07-13T08:06:12;5.30;;;1.70;;
20988;SDS011;10653;47.052;15.410;2023-07-13T08:08:38;1.83;;;1.70;;
20988;SDS011;10653;47.052;15.410;2023-07-13T08:11:04;2.70;;;1.20;;
20988;SDS011;10653;47.052;15.410;2023-07-13T08:13:32;2.00;;;1.47;;
20988;SDS011;10653;47.052;15.410;2023-07-13T08:15:58;2.77;;;1.50;;
20988;SDS011;10653;47.052;15.410;2023-07-13T08:18:24;3.60;;;1.50;;
20988;SDS011;10653;47.052;15.410;2023-07-13T08:20:53;2.77;;;2.20;;
20988;SDS011;10653;47.052;15.410;2023-07-13T08:23:21;2.13;;;1.20;;
20988;SDS011;10653;47.052;15.410;2023-07-13T08:25:51;1.43;;;1.03;;
20988;SDS011;10653;47.052;15.410;2023-07-13T08:28:17;2.10;;;1.50;;
20988;SDS011;10653;47.052;15.410;2023-07-13T08:30:43;2.93;;;1.13;;
20988;SDS011;10653;47.052;15.410;2023-07-13T08:33:09;1.03;;;0.90;;
20988;SDS011;10653;47.052;15.410;2023-07-13T08:35:35;1.20;;;1.10;;
20988;SDS011;10653;47.052;15.410;2023-07-13T08:38:01;1.40;;;1.30;;
20988;SDS011;10653;47.052;15.410;2023-07-13T08:40:27;2.00;;;1.30;;
20988;SDS011;10653;47.052;15.410;2023-07-13T08:42:59;1.20;;;1.03;;
20988;SDS011;10653;47.052;15.410;2023-07-13T08:45:30;1.43;;;1.10;;
20988;SDS011;10653;47.052;15.410;2023-07-13T08:50:33;2.00;;;1.17;;
20988;SDS011;10653;47.052;15.410;2023-07-13T08:53:01;1.40;;;1.23;;
20988;SDS011;10653;47.052;15.410;2023-07-13T08:55:30;1.57;;;0.90;;
20988;SDS011;10653;47.052;15.410;2023-07-13T08:58:15;1.50;;;1.40;;
20988;SDS011;10653;47.052;15.410;2023-07-13T09:03:18;1.73;;;1.57;;
20988;SDS011;10653;47.052;15.410;2023-07-13T09:05:45;2.20;;;1.30;;
20988;SDS011;10653;47.052;15.410;2023-07-13T09:08:36;1.40;;;1.10;;
20988;SDS011;10653;47.052;15.410;2023-07-13T09:13:42;1.50;;;1.40;;
20988;SDS011;10653;47.052;15.410;2023-07-13T09:16:09;2.20;;;1.10;;
20988;SDS011;10653;47.052;15.410;2023-07-13T09:18:43;1.80;;;1.40;;
20988;SDS011;10653;47.052;15.410;2023-07-13T09:26:54;2.53;;;1.37;;
20988;SDS011;10653;47.052;15.410;2023-07-13T09:29:26;2.37;;;1.40;;
20988;SDS011;10653;47.052;15.410;2023-07-13T09:31:54;2.50;;;1.57;;
20988;SDS011;10653;47.052;15.410;2023-07-13T09:34:21;2.37;;;1.40;;
20988;SDS011;10653;47.052;15.410;2023-07-13T09:36:47;3.33;;;1.30;;
20988;SDS011;10653;47.052;15.410;2023-07-13T09:44:28;1.93;;;1.53;;
20988;SDS011;10653;47.052;15.410;2023-07-13T09:46:56;1.80;;;1.43;;
20988;SDS011;10653;47.052;15.410;2023-07-13T09:49:26;1.80;;;1.40;;
20988;SDS011;10653;47.052;15.410;2023-07-13T09:52:02;1.77;;;1.53;;
20988;SDS011;10653;47.052;15.410;2023-07-13T09:54:28;2.40;;;1.70;;
20988;SDS011;10653;47.052;15.410;2023-07-13T09:56:57;1.80;;;1.60;;
20988;SDS011;10653;47.052;15.410;2023-07-13T09:59:30;2.53;;;1.57;;
20988;SDS011;10653;47.052;15.410;2023-07-13T10:01:57;2.20;;;1.60;;
20988;SDS011;10653;47.052;15.410;2023-07-13T10:04:41;1.60;;;1.47;;
20988;SDS011;10653;47.052;15.410;2023-07-13T10:07:08;2.03;;;1.23;;
20988;SDS011;10653;47.052;15.410;2023-07-13T10:09:36;2.03;;;1.43;;
20988;SDS011;10653;47.052;15.410;2023-07-13T10:12:03;1.60;;;1.30;;
20988;SDS011;10653;47.052;15.410;2023-07-13T10:14:30;4.27;;;1.70;;
20988;SDS011;10653;47.052;15.410;2023-07-13T10:16:59;1.83;;;1.30;;
20988;SDS011;10653;47.052;15.410;2023-07-13T10:19:28;3.40;;;1.80;;
20988;SDS011;10653;47.052;15.410;2023-07-13T10:21:57;1.70;;;1.40;;
20988;SDS011;10653;47.052;15.410;2023-07-13T10:24:26;2.73;;;1.40;;
20988;SDS011;10653;47.052;15.410;2023-07-13T10:26:57;1.50;;;1.20;;
20988;SDS011;10653;47.052;15.410;2023-07-13T10:29:26;1.77;;;1.60;;
20988;SDS011;10653;47.052;15.410;2023-07-13T10:31:53;2.00;;;1.70;;
20988;SDS011;10653;47.052;15.410;2023-07-13T10:34:19;2.73;;;1.77;;
20988;SDS011;10653;47.052;15.410;2023-07-13T10:36:46;4.80;;;3.50;;
20988;SDS011;10653;47.052;15.410;2023-07-13T10:39:17;2.63;;;2.03;;
20988;SDS011;10653;47.052;15.410;2023-07-13T10:41:44;1.73;;;1.47;;
20988;SDS011;10653;47.052;15.410;2023-07-13T10:44:28;2.50;;;1.80;;
20988;SDS011;10653;47.052;15.410;2023-07-13T10:46:55;2.20;;;1.63;;
20988;SDS011;10653;47.052;15.410;2023-07-13T10:49:23;2.20;;;1.60;;
20988;SDS011;10653;47.052;15.410;2023-07-13T10:51:49;1.50;;;1.30;;
20988;SDS011;10653;47.052;15.410;2023-07-13T10:54:18;2.37;;;1.70;;
20988;SDS011;10653;47.052;15.410;2023-07-13T10:56:48;1.60;;;1.20;;
20988;SDS011;10653;47.052;15.410;2023-07-13T10:59:15;2.70;;;1.80;;
20988;SDS011;10653;47.052;15.410;2023-07-13T11:01:58;2.00;;;1.60;;
20988;SDS011;10653;47.052;15.410;2023-07-13T11:04:25;2.70;;;2.10;;
20988;SDS011;10653;47.052;15.410;2023-07-13T11:07:09;2.37;;;1.50;;
20988;SDS011;10653;47.052;15.410;2023-07-13T11:09:40;2.27;;;2.07;;
20988;SDS011;10653;47.052;15.410;2023-07-13T11:18:03;1.97;;;1.63;;
20988;SDS011;10653;47.052;15.410;2023-07-13T11:22:43;3.70;;;1.70;;
20988;SDS011;10653;47.052;15.410;2023-07-13T11:30:31;3.23;;;1.47;;
20988;SDS011;10653;47.052;15.410;2023-07-13T11:35:33;2.97;;;1.97;;
20988;SDS011;10653;47.052;15.410;2023-07-13T11:38:01;2.23;;;1.73;;
20988;SDS011;10653;47.052;15.410;2023-07-13T11:40:27;1.70;;;1.50;;
20988;SDS011;10653;47.052;15.410;2023-07-13T11:43:01;1.80;;;1.50;;
20988;SDS011;10653;47.052;15.410;2023-07-13T11:45:27;2.37;;;1.60;;
20988;SDS011;10653;47.052;15.410;2023-07-13T11:47:53;2.00;;;1.50;;
20988;SDS011;10653;47.052;15.410;2023-07-13T11:50:23;1.90;;;1.57;;
20988;SDS011;10653;47.052;15.410;2023-07-13T11:52:49;2.57;;;1.70;;
20988;SDS011;10653;47.052;15.410;2023-07-13T11:55:17;1.57;;;1.47;;
20988;SDS011;10653;47.052;15.410;2023-07-13T11:57:49;1.93;;;1.70;;
20988;SDS011;10653;47.052;15.410;2023-07-13T12:00:21;3.17;;;1.80;;
20988;SDS011;10653;47.052;15.410;2023-07-13T12:02:51;2.37;;;1.70;;
20988;SDS011;10653;47.052;15.410;2023-07-13T12:05:18;3.30;;;1.40;;
20988;SDS011;10653;47.052;15.410;2023-07-13T12:07:46;2.33;;;1.70;;
20988;SDS011;10653;47.052;15.410;2023-07-13T12:10:28;3.60;;;1.80;;
20988;SDS011;10653;47.052;15.410;2023-07-13T12:12:55;2.37;;;2.17;;
20988;SDS011;10653;47.052;15.410;2023-07-13T12:15:22;2.33;;;1.97;;
20988;SDS011;10653;47.052;15.410;2023-07-13T12:17:48;2.93;;;1.70;;
20988;SDS011;10653;47.052;15.410;2023-07-13T12:22:47;2.47;;;1.80;;
20988;SDS011;10653;47.052;15.410;2023-07-13T12:25:14;2.13;;;1.77;;
20988;SDS011;10653;47.052;15.410;2023-07-13T12:27:40;2.17;;;1.70;;
20988;SDS011;10653;47.052;15.410;2023-07-13T12:32:56;2.67;;;2.13;;
20988;SDS011;10653;47.052;15.410;2023-07-13T12:35:23;3.73;;;1.93;;
20988;SDS011;10653;47.052;15.410;2023-07-13T12:37:50;3.03;;;1.90;;
20988;SDS011;10653;47.052;15.410;2023-07-13T12:40:32;4.83;;;2.47;;
20988;SDS011;10653;47.052;15.410;2023-07-13T12:42:59;2.80;;;2.10;;
20988;SDS011;10653;47.052;15.410;2023-07-13T12:45:29;2.67;;;1.90;;
20988;SDS011;10653;47.052;15.410;2023-07-13T12:47:59;3.10;;;2.00;;
20988;SDS011;10653;47.052;15.410;2023-07-13T12:50:33;4.00;;;2.30;;
20988;SDS011;10653;47.052;15.410;2023-07-13T12:53:02;2.47;;;1.90;;
20988;SDS011;10653;47.052;15.410;2023-07-13T12:55:28;2.63;;;2.10;;
20988;SDS011;10653;47.052;15.410;2023-07-13T12:57:58;3.30;;;2.03;;
20988;SDS011;10653;47.052;15.410;2023-07-13T13:02:51;1.93;;;1.83;;
20988;SDS011;10653;47.052;15.410;2023-07-13T13:05:18;3.13;;;2.30;;
20988;SDS011;10653;47.052;15.410;2023-07-13T13:07:48;2.00;;;1.80;;
20988;SDS011;10653;47.052;15.410;2023-07-13T13:10:14;2.30;;;2.00;;
20988;SDS011;10653;47.052;15.410;2023-07-13T13:12:40;2.33;;;2.13;;
20988;SDS011;10653;47.052;15.410;2023-07-13T13:15:08;2.60;;;1.93;;
20988;SDS011;10653;47.052;15.410;2023-07-13T13:17:34;2.50;;;1.80;;
20988;SDS011;10653;47.052;15.410;2023-07-13T13:20:00;4.03;;;1.97;;
20988;SDS011;10653;47.052;15.410;2023-07-13T13:22:26;3.50;;;1.60;;
20988;SDS011;10653;47.052;15.410;2023-07-13T13:24:52;2.57;;;2.10;;
20988;SDS011;10653;47.052;15.410;2023-07-13T13:27:19;5.00;;;2.20;;
20988;SDS011;10653;47.052;15.410;2023-07-13T13:29:45;4.63;;;2.30;;
20988;SDS011;10653;47.052;15.410;2023-07-13T13:32:12;1.70;;;1.50;;
20988;SDS011;10653;47.052;15.410;2023-07-13T13:34:39;2.27;;;2.07;;
20988;SDS011;10653;47.052;15.410;2023-07-13T13:37:11;2.10;;;1.80;;
20988;SDS011;10653;47.052;15.410;2023-07-13T13:39:43;2.47;;;1.80;;
20988;SDS011;10653;47.052;15.410;2023-07-13T13:42:09;1.50;;;1.40;;
20988;SDS011;10653;47.052;15.410;2023-07-13T13:44:35;3.07;;;1.80;;
20988;SDS011;10653;47.052;15.410;2023-07-13T13:47:02;3.00;;;1.93;;
20988;SDS011;10653;47.052;15.410;2023-07-13T13:49:29;2.40;;;2.20;;
20988;SDS011;10653;47.052;15.410;2023-07-13T13:51:55;1.30;;;1.20;;
20988;SDS011;10653;47.052;15.410;2023-07-13T13:54:22;2.10;;;1.77;;
20988;SDS011;10653;47.052;15.410;2023-07-13T13:56:51;1.83;;;1.50;;
20988;SDS011;10653;47.052;15.410;2023-07-13T13:59:17;4.50;;;1.90;;
20988;SDS011;10653;47.052;15.410;2023-07-13T14:01:43;3.90;;;1.90;;
20988;SDS011;10653;47.052;15.410;2023-07-13T14:04:14;3.17;;;1.77;;
20988;SDS011;10653;47.052;15.410;2023-07-13T14:06:40;1.83;;;1.73;;
20988;SDS011;10653;47.052;15.410;2023-07-13T14:09:08;2.33;;;1.83;;
20988;SDS011;10653;47.052;15.410;2023-07-13T14:11:36;2.03;;;1.70;;
20988;SDS011;10653;47.052;15.410;2023-07-13T14:14:02;2.83;;;2.00;;
20988;SDS011;10653;47.052;15.410;2023-07-13T14:16:30;1.90;;;1.73;;
20988;SDS011;10653;47.052;15.410;2023-07-13T14:18:56;3.77;;;2.50;;
20988;SDS011;10653;47.052;15.410;2023-07-13T14:21:25;3.23;;;1.93;;
20988;SDS011;10653;47.052;15.410;2023-07-13T14:23:51;2.40;;;1.97;;
20988;SDS011;10653;47.052;15.410;2023-07-13T14:26:18;2.20;;;1.80;;
20988;SDS011;10653;47.052;15.410;2023-07-13T14:28:46;2.43;;;1.70;;
20988;SDS011;10653;47.052;15.410;2023-07-13T14:31:12;4.60;;;1.90;;
20988;SDS011;10653;47.052;15.410;2023-07-13T14:33:39;3.50;;;1.97;;
20988;SDS011;10653;47.052;15.410;2023-07-13T14:36:16;3.10;;;2.00;;
20988;SDS011;10653;47.052;15.410;2023-07-13T14:38:46;2.80;;;2.30;;
20988;SDS011;10653;47.052;15.410;2023-07-13T14:41:12;3.67;;;2.00;;
20988;SDS011;10653;47.052;15.410;2023-07-13T14:43:39;2.50;;;2.20;;
20988;SDS011;10653;47.052;15.410;2023-07-13T14:46:05;1.87;;;1.70;;
20988;SDS011;10653;47.052;15.410;2023-07-13T14:48:31;2.30;;;1.63;;
20988;SDS011;10653;47.052;15.410;2023-07-13T14:50:57;2.00;;;1.80;;
20988;SDS011;10653;47.052;15.410;2023-07-13T14:53:25;3.17;;;2.00;;
20988;SDS011;10653;47.052;15.410;2023-07-13T14:55:52;3.07;;;2.17;;
20988;SDS011;10653;47.052;15.410;2023-07-13T14:58:18;5.30;;;2.10;;
20988;SDS011;10653;47.052;15.410;2023-07-13T15:00:45;6.00;;;2.00;;
20988;SDS011;10653;47.052;15.410;2023-07-13T15:03:18;2.80;;;2.33;;
20988;SDS011;10653;47.052;15.410;2023-07-13T15:05:46;2.80;;;2.13;;
20988;SDS011;10653;47.052;15.410;2023-07-13T15:08:13;2.93;;;2.10;;
20988;SDS011;10653;47.052;15.410;2023-07-13T15:10:39;2.67;;;2.07;;
20988;SDS011;10653;47.052;15.410;2023-07-13T15:13:16;2.67;;;2.10;;
20988;SDS011;10653;47.052;15.410;2023-07-13T15:15:43;2.50;;;1.80;;
20988;SDS011;10653;47.052;15.410;2023-07-13T15:18:11;2.50;;;2.03;;
20988;SDS011;10653;47.052;15.410;2023-07-13T15:20:37;2.20;;;2.00;;